Time;durP1;ratioP1;P1;durP2;ratioP2;P2;SDS_P1;SDS_P2;PMS_P1;PMS_P2;Temp;Humidity;BMP_temperature;BMP_pressure;BME280_temperature;BME280_humidity;BME280_pressure;Samples;Min_cycle;Max_cycle;Signal;HPM_P1;HPM_P2
2022/02/04 00:24:28;;;;;;;1.43;0.80;;;8.00;99.90;;;;;;4994094;28;20258;-94
2022/02/04 00:27:07;;;;;;;2.13;1.10;;;8.00;99.90;;;;;;4993619;28;20211;-93
2022/02/04 00:40:25;;;;;;;2.13;0.97;;;7.80;99.90;;;;;;4992149;28;20225;-93
2022/02/04 00:43:04;;;;;;;1.77;0.97;;;7.80;99.90;;;;;;5112911;22;20305;-93
2022/02/04 00:51:16;;;;;;;0.90;0.70;;;7.70;99.90;;;;;;5011415;28;20410;-95
2022/02/04 00:53:57;;;;;;;1.73;0.90;;;7.70;99.90;;;;;;5014280;28;20273;-94
2022/02/04 00:56:44;;;;;;;1.53;0.80;;;7.70;99.90;;;;;;5015052;28;20225;-95
2022/02/04 01:13:30;;;;;;;0.73;0.50;;;7.50;99.90;;;;;;5016908;28;20191;-92
2022/02/04 01:27:03;;;;;;;0.80;0.60;;;7.50;99.90;;;;;;5000274;28;20207;-93
2022/02/04 01:29:46;;;;;;;1.20;0.80;;;7.50;99.90;;;;;;5000167;28;20197;-92
2022/02/04 01:37:41;;;;;;;1.20;0.70;;;7.40;99.90;;;;;;5549346;23;20271;-92
2022/02/04 01:40:13;;;;;;;1.20;0.90;;;7.40;99.90;;;;;;5019325;28;20217;-94
2022/02/04 01:42:44;;;;;;;1.47;1.10;;;7.40;99.90;;;;;;5019340;28;20222;-92
2022/02/04 01:45:18;;;;;;;1.27;1.00;;;7.40;99.90;;;;;;5019064;28;20187;-93
2022/02/04 01:47:56;;;;;;;1.70;1.03;;;7.40;99.90;;;;;;5077457;23;20375;-94
2022/02/04 01:50:30;;;;;;;2.10;1.23;;;7.40;99.90;;;;;;4995903;28;20270;-95
2022/02/04 01:53:04;;;;;;;1.03;0.93;;;7.40;99.90;;;;;;4979955;28;20214;-92
2022/02/04 01:55:35;;;;;;;1.63;0.90;;;7.40;99.90;;;;;;4997883;28;20226;-94
2022/02/04 01:58:07;;;;;;;1.43;1.10;;;7.40;99.90;;;;;;4998569;28;20262;-94
2022/02/04 02:00:41;;;;;;;1.93;1.20;;;7.40;99.90;;;;;;4999412;28;20214;-93
2022/02/04 02:05:59;;;;;;;1.53;1.20;;;7.30;99.90;;;;;;5656138;22;20253;-93
2022/02/04 02:11:06;;;;;;;1.23;1.00;;;7.30;99.90;;;;;;5223930;23;20230;-94
2022/02/04 02:13:44;;;;;;;1.40;1.30;;;7.30;99.90;;;;;;5017053;28;20237;-93
2022/02/04 02:16:50;;;;;;;1.70;1.60;;;7.20;99.90;;;;;;5019031;28;20216;-93
2022/02/04 02:36:57;;;;;;;3.10;1.47;;;7.20;99.90;;;;;;5015894;28;20198;-93
2022/02/04 02:45:22;;;;;;;1.47;1.37;;;7.20;99.90;;;;;;5018467;28;20212;-93
2022/02/04 02:48:12;;;;;;;2.77;1.40;;;7.20;99.90;;;;;;5017346;28;20214;-94
2022/02/04 02:53:54;;;;;;;2.10;1.83;;;7.20;99.90;;;;;;4995962;28;20191;-94
2022/02/04 02:59:15;;;;;;;1.77;1.63;;;7.20;99.90;;;;;;4990238;28;20231;-93
2022/02/04 03:01:50;;;;;;;2.87;2.00;;;7.20;99.90;;;;;;4997951;28;20262;-92
2022/02/04 03:04:21;;;;;;;2.23;2.03;;;7.20;99.90;;;;;;4994080;28;20233;-93
2022/02/04 03:06:53;;;;;;;2.47;1.60;;;7.20;99.90;;;;;;4997170;28;20202;-94
2022/02/04 03:09:24;;;;;;;1.90;1.67;;;7.20;99.90;;;;;;5008779;28;20206;-94
2022/02/04 03:11:58;;;;;;;2.40;1.43;;;7.20;99.90;;;;;;5014357;28;20214;-94
2022/02/04 03:14:29;;;;;;;2.23;1.43;;;7.20;99.90;;;;;;5014031;28;20213;-94
2022/02/04 03:17:06;;;;;;;1.80;1.27;;;7.20;99.90;;;;;;5014584;28;20209;-92
2022/02/04 03:19:38;;;;;;;2.00;1.47;;;7.20;99.90;;;;;;5015250;28;20257;-94
2022/02/04 03:22:13;;;;;;;2.30;1.70;;;7.10;99.90;;;;;;5013093;28;20210;-93
2022/02/04 03:24:53;;;;;;;1.70;1.30;;;7.10;99.90;;;;;;5014053;28;20202;-92
2022/02/04 03:27:34;;;;;;;1.83;1.47;;;7.10;99.90;;;;;;5013224;28;20245;-93
2022/02/04 03:32:48;;;;;;;1.67;1.37;;;7.00;99.90;;;;;;5220727;22;20238;-94
2022/02/04 03:35:22;;;;;;;1.80;1.30;;;7.00;99.90;;;;;;5019045;28;20213;-93
2022/02/04 03:37:55;;;;;;;2.00;1.40;;;7.00;99.90;;;;;;5017865;28;20206;-93
2022/02/04 03:40:27;;;;;;;1.87;1.30;;;7.00;99.90;;;;;;5018231;28;20221;-93
2022/02/04 03:43:02;;;;;;;2.27;1.30;;;7.00;99.90;;;;;;5015447;28;20265;-93
2022/02/04 03:45:34;;;;;;;3.80;1.30;;;6.90;99.90;;;;;;5015707;28;20206;-93
2022/02/04 03:48:07;;;;;;;1.63;1.23;;;6.90;99.90;;;;;;5334658;22;20238;-92
2022/02/04 03:50:38;;;;;;;1.53;1.43;;;6.90;99.90;;;;;;4992695;28;20210;-93
2022/02/04 03:53:13;;;;;;;1.40;1.30;;;6.80;99.90;;;;;;4994482;28;20214;-92
2022/02/04 03:55:46;;;;;;;1.40;1.30;;;6.80;99.90;;;;;;4991184;28;20221;-93
2022/02/04 03:58:21;;;;;;;1.70;1.37;;;6.80;99.90;;;;;;4989155;28;20246;-94
2022/02/04 04:00:52;;;;;;;1.50;1.40;;;6.70;99.90;;;;;;4997564;28;20229;-93
2022/02/04 04:03:30;;;;;;;2.23;1.60;;;6.70;99.90;;;;;;4990049;28;20213;-94
2022/02/04 04:06:02;;;;;;;1.30;1.20;;;6.80;99.90;;;;;;4992432;28;20207;-93
2022/02/04 04:08:35;;;;;;;1.60;1.10;;;6.80;99.90;;;;;;4990115;28;20218;-92
2022/02/04 04:11:07;;;;;;;1.63;1.20;;;6.70;99.90;;;;;;4993079;28;20218;-93
2022/02/04 04:13:41;;;;;;;1.33;1.23;;;6.70;99.90;;;;;;4994579;28;20217;-93
2022/02/04 04:16:15;;;;;;;4.93;1.80;;;6.70;99.90;;;;;;4991856;28;20278;-93
2022/02/04 04:18:46;;;;;;;5.37;2.80;;;6.70;99.90;;;;;;4986484;28;20290;-94
2022/02/04 04:21:18;;;;;;;4.43;3.43;;;6.70;99.90;;;;;;4991629;28;20218;-93
2022/02/04 04:23:49;;;;;;;5.23;2.90;;;6.60;99.90;;;;;;5034025;23;20242;-94
2022/02/04 04:26:20;;;;;;;4.00;2.67;;;6.70;99.90;;;;;;5009067;28;20228;-93
2022/02/04 04:28:57;;;;;;;2.63;2.07;;;6.60;99.90;;;;;;5182961;22;20313;-93
2022/02/04 04:31:28;;;;;;;1.70;1.60;;;6.60;99.90;;;;;;4995032;28;20206;-92
2022/02/04 04:34:00;;;;;;;2.57;2.10;;;6.60;99.90;;;;;;4990025;28;20275;-93
2022/02/04 04:36:33;;;;;;;3.03;2.20;;;6.60;99.90;;;;;;4991735;28;20209;-94
2022/02/04 04:39:19;;;;;;;2.20;1.73;;;6.60;99.90;;;;;;4989920;28;20231;-93
2022/02/04 04:42:06;;;;;;;2.57;1.90;;;6.60;99.90;;;;;;4991244;28;20214;-92
2022/02/04 04:45:05;;;;;;;2.77;1.57;;;6.70;99.90;;;;;;4985592;28;20225;-93
2022/02/04 05:27:21;;;;;;;2.00;1.50;;;6.60;99.90;;;;;;5016469;28;20206;-94
2022/02/04 05:29:44;;;;;;;3.83;2.00;;;6.60;99.90;;;;;;5016526;28;20256;-92
2022/02/04 05:32:15;;;;;;;3.03;1.70;;;6.60;99.90;;;;;;5014774;28;20202;-94
2022/02/04 05:34:51;;;;;;;1.80;1.60;;;6.60;99.90;;;;;;5008267;28;20208;-94
2022/02/04 05:37:23;;;;;;;2.97;1.87;;;6.60;99.90;;;;;;5006766;28;20233;-93
2022/02/04 05:39:59;;;;;;;2.67;1.60;;;6.60;99.90;;;;;;5005972;28;20254;-92
2022/02/04 05:42:34;;;;;;;1.97;1.33;;;6.60;99.90;;;;;;5001011;28;20272;-93
2022/02/04 05:45:15;;;;;;;1.70;1.40;;;6.60;99.90;;;;;;5000324;28;20240;-94
2022/02/04 05:47:47;;;;;;;3.03;1.63;;;6.60;99.90;;;;;;5003085;28;20226;-93
2022/02/04 05:50:25;;;;;;;1.83;1.40;;;6.60;99.90;;;;;;5016292;28;20210;-92
2022/02/04 05:53:10;;;;;;;2.33;1.60;;;6.60;99.90;;;;;;5010849;28;20214;-92
2022/02/04 05:55:52;;;;;;;3.33;1.70;;;6.60;99.90;;;;;;5004369;28;20214;-92
2022/02/04 05:58:38;;;;;;;2.37;1.90;;;6.60;99.90;;;;;;5005348;28;20713;-93
2022/02/04 06:01:28;;;;;;;2.83;1.70;;;6.60;99.90;;;;;;5001183;28;20230;-93
2022/02/04 06:04:14;;;;;;;1.43;1.30;;;6.60;99.90;;;;;;4998570;28;20221;-92
2022/02/04 06:12:47;;;;;;;2.17;1.30;;;6.70;99.90;;;;;;5003380;28;20251;-94
2022/02/04 06:23:56;;;;;;;2.03;1.40;;;6.60;99.90;;;;;;5007454;28;20206;-93
2022/02/04 06:26:28;;;;;;;1.30;1.20;;;6.60;99.90;;;;;;5008419;28;20238;-93
2022/02/04 06:29:04;;;;;;;1.60;1.20;;;6.50;99.90;;;;;;5002263;28;20610;-93
2022/02/04 06:31:36;;;;;;;2.40;1.47;;;6.50;99.90;;;;;;5327153;22;20331;-94
2022/02/04 06:34:08;;;;;;;1.40;1.27;;;6.60;99.90;;;;;;5000026;28;20305;-94
2022/02/04 06:36:39;;;;;;;1.10;1.00;;;6.50;99.90;;;;;;4654072;28;10000399;-93
2022/02/04 06:39:13;;;;;;;3.30;1.10;;;6.50;99.90;;;;;;4999546;28;20237;-93
2022/02/04 06:41:44;;;;;;;1.63;1.33;;;6.50;99.90;;;;;;4999882;28;20253;-94
2022/02/04 06:44:15;;;;;;;1.70;1.30;;;6.50;99.90;;;;;;4999275;28;20202;-94
2022/02/04 06:46:47;;;;;;;1.67;1.17;;;6.50;99.90;;;;;;5003293;28;20217;-93
2022/02/04 06:49:19;;;;;;;1.20;1.00;;;6.50;99.90;;;;;;5008351;28;20206;-93
2022/02/04 06:51:51;;;;;;;1.20;1.10;;;6.50;99.90;;;;;;5009374;28;20290;-93
2022/02/04 06:54:24;;;;;;;1.70;1.30;;;6.50;99.90;;;;;;5012583;28;20190;-92
2022/02/04 06:56:55;;;;;;;1.53;1.30;;;6.50;99.90;;;;;;5010284;28;20301;-92
2022/02/04 06:59:26;;;;;;;2.10;1.57;;;6.50;99.90;;;;;;5003669;28;20210;-94
2022/02/04 07:01:57;;;;;;;1.83;1.33;;;6.50;99.90;;;;;;4999888;28;20221;-94
2022/02/04 07:04:31;;;;;;;2.03;1.80;;;6.50;99.90;;;;;;5001014;28;20205;-94
2022/02/04 07:07:04;;;;;;;1.57;1.30;;;6.50;99.90;;;;;;4999602;28;20268;-93
2022/02/04 07:09:46;;;;;;;2.40;1.50;;;6.40;99.90;;;;;;5000541;28;20622;-93
2022/02/04 07:12:31;;;;;;;2.50;1.43;;;6.40;99.90;;;;;;5000641;28;20206;-94
2022/02/04 07:15:26;;;;;;;2.03;1.40;;;6.40;99.90;;;;;;5001559;28;20308;-93
2022/02/04 07:19:44;;;;;;;1.33;1.23;;;6.40;99.90;;;;;;5000041;28;20304;-93
2022/02/04 07:20:53;;;;;;;2.40;2.20;;;6.40;99.90;;;;;;5000566;28;20305;-94
2022/02/04 07:23:24;;;;;;;3.30;2.00;;;6.40;99.90;;;;;;5006380;28;20214;-94
2022/02/04 07:25:56;;;;;;;3.53;3.20;;;6.40;99.90;;;;;;5006219;28;20308;-94
2022/02/04 07:28:28;;;;;;;1.70;1.57;;;6.40;99.90;;;;;;5011409;28;20278;-93
2022/02/04 07:31:02;;;;;;;2.03;1.83;;;6.40;99.90;;;;;;5013011;28;20214;-92
2022/02/04 07:33:43;;;;;;;3.03;2.60;;;6.40;99.90;;;;;;5017327;28;20205;-93
2022/02/04 07:41:52;;;;;;;2.83;2.10;;;6.30;99.90;;;;;;5005189;28;20325;-93
2022/02/04 07:44:23;;;;;;;3.27;1.70;;;6.40;99.90;;;;;;5003960;28;20634;-92
2022/02/04 07:46:55;;;;;;;1.83;1.40;;;6.30;99.90;;;;;;4998739;28;20545;-92
2022/02/04 07:49:26;;;;;;;1.60;1.23;;;6.30;99.90;;;;;;5000556;28;20260;-93
2022/02/04 07:51:57;;;;;;;1.53;1.23;;;6.30;99.90;;;;;;4999376;28;20241;-93
2022/02/04 07:54:29;;;;;;;1.63;1.40;;;6.30;99.90;;;;;;5000389;28;20249;-93
2022/02/04 07:57:02;;;;;;;1.23;1.10;;;6.30;99.90;;;;;;4998216;28;20639;-93
2022/02/04 07:59:36;;;;;;;1.27;1.13;;;6.30;99.90;;;;;;4999179;28;20229;-92
2022/02/04 08:02:09;;;;;;;1.60;1.20;;;6.30;99.90;;;;;;4998766;28;20295;-93
2022/02/04 08:04:43;;;;;;;1.43;1.20;;;6.30;99.90;;;;;;4999517;28;20713;-93
2022/02/04 08:07:16;;;;;;;1.20;1.10;;;6.30;99.90;;;;;;4999537;28;20216;-92
2022/02/04 08:10:00;;;;;;;1.80;1.60;;;6.30;99.90;;;;;;4981908;28;20242;-93
2022/02/04 08:15:38;;;;;;;3.40;1.50;;;6.30;99.90;;;;;;4981403;28;20209;-92
2022/02/04 08:21:39;;;;;;;1.87;1.30;;;6.30;99.90;;;;;;4976580;28;20246;-92
2022/02/04 08:24:28;;;;;;;1.50;1.30;;;6.20;99.90;;;;;;4980330;28;20590;-94
2022/02/04 08:30:26;;;;;;;3.10;1.27;;;6.20;99.90;;;;;;4965630;28;20659;-93
2022/02/04 08:33:19;;;;;;;3.50;1.63;;;6.20;99.90;;;;;;5009120;23;20273;-91
2022/02/04 08:38:47;;;;;;;1.97;1.40;;;6.20;99.90;;;;;;4977397;28;20234;-93
2022/02/04 08:47:19;;;;;;;2.23;1.47;;;6.20;99.90;;;;;;4978214;28;20605;-93
2022/02/04 08:55:36;;;;;;;1.97;1.57;;;6.10;99.90;;;;;;4978998;28;20207;-93
2022/02/04 08:58:17;;;;;;;1.40;1.13;;;6.10;99.90;;;;;;4978015;28;20665;-93
2022/02/04 09:00:56;;;;;;;1.77;1.40;;;6.00;99.90;;;;;;4982649;28;20318;-93
2022/02/04 09:03:36;;;;;;;1.33;1.23;;;5.90;99.90;;;;;;4983116;28;20312;-93
2022/02/04 09:06:17;;;;;;;1.40;1.10;;;5.90;99.90;;;;;;4979715;28;20221;-90
2022/02/04 09:08:52;;;;;;;1.60;1.30;;;5.90;99.90;;;;;;4979329;28;20218;-92
2022/02/04 09:11:43;;;;;;;1.60;1.20;;;5.90;99.90;;;;;;4981872;28;20661;-93
2022/02/04 09:20:02;;;;;;;2.13;1.37;;;5.80;99.90;;;;;;4978634;28;20231;-93
2022/02/04 09:22:43;;;;;;;1.37;1.20;;;5.90;99.90;;;;;;4991971;28;20271;-92
2022/02/04 09:25:15;;;;;;;1.90;1.10;;;5.90;99.90;;;;;;4991078;28;20237;-92
2022/02/04 09:27:46;;;;;;;1.60;1.00;;;6.00;99.90;;;;;;4987867;28;20210;-93
2022/02/04 09:30:19;;;;;;;1.00;0.90;;;6.00;99.90;;;;;;4981296;28;20215;-93
2022/02/04 09:32:50;;;;;;;1.40;1.03;;;6.00;99.90;;;;;;4979362;28;20250;-93
2022/02/04 09:35:24;;;;;;;1.60;1.10;;;5.90;99.90;;;;;;4979525;28;20230;-92
2022/02/04 09:37:57;;;;;;;1.10;1.00;;;5.90;99.90;;;;;;4979450;28;20224;-92
2022/02/04 09:40:27;;;;;;;1.17;1.00;;;5.90;99.90;;;;;;4979831;28;20342;-92
2022/02/04 09:42:59;;;;;;;1.10;1.00;;;5.90;99.90;;;;;;4987784;28;20747;-94
2022/02/04 09:45:32;;;;;;;1.03;0.93;;;5.80;99.90;;;;;;4991558;28;20211;-93
2022/02/04 09:48:06;;;;;;;1.37;1.10;;;5.80;99.90;;;;;;4992456;28;20205;-93
2022/02/04 09:50:44;;;;;;;2.13;0.90;;;5.70;99.90;;;;;;4992292;28;20655;-94
2022/02/04 10:07:37;;;;;;;1.20;0.90;;;5.40;99.90;;;;;;4978130;28;20214;-92
2022/02/04 10:15:56;;;;;;;1.27;1.00;;;5.30;99.90;;;;;;4984242;28;20222;-93
2022/02/04 10:18:34;;;;;;;1.43;1.00;;;5.20;99.90;;;;;;4999527;28;20187;-93
2022/02/04 10:21:07;;;;;;;4.17;1.00;;;5.20;99.90;;;;;;5000106;28;20210;-93
2022/02/04 10:23:52;;;;;;;1.33;1.10;;;5.10;99.90;;;;;;5000309;28;20202;-93
2022/02/04 10:26:24;;;;;;;1.30;1.00;;;5.10;99.90;;;;;;5000247;28;20199;-93
2022/02/04 10:28:58;;;;;;;1.87;1.10;;;5.00;99.90;;;;;;4999684;28;20189;-93
2022/02/04 10:31:31;;;;;;;1.20;1.00;;;5.00;99.90;;;;;;4999921;28;20225;-93
2022/02/04 10:34:05;;;;;;;1.13;1.00;;;5.00;99.90;;;;;;5000317;28;20195;-93
2022/02/04 10:36:51;;;;;;;1.10;1.00;;;4.90;99.90;;;;;;4999467;28;20242;-95
2022/02/04 10:39:37;;;;;;;3.60;1.20;;;4.90;99.90;;;;;;4997455;28;20207;-92
2022/02/04 10:42:21;;;;;;;0.90;0.83;;;4.80;99.90;;;;;;4994018;28;20237;-92
2022/02/04 10:47:55;;;;;;;1.13;0.90;;;4.80;99.90;;;;;;4989931;28;20210;-93
2022/02/04 10:53:48;;;;;;;0.70;0.70;;;4.70;99.90;;;;;;4987041;28;20262;-93
2022/02/04 11:02:10;;;;;;;3.07;1.07;;;4.70;99.90;;;;;;4975378;28;20305;-92
2022/02/04 11:04:53;;;;;;;1.03;0.93;;;4.70;99.90;;;;;;4991897;28;20203;-91
2022/02/04 11:10:24;;;;;;;1.73;1.20;;;4.80;99.90;;;;;;4976070;28;20238;-92
2022/02/04 11:36:31;;;;;;;1.47;0.90;;;5.40;99.90;;;;;;4986626;28;20211;-93
2022/02/04 11:49:25;;;;;;;2.80;1.43;;;5.70;99.90;;;;;;4982450;28;20203;-93
2022/02/04 11:52:06;;;;;;;1.17;1.00;;;5.80;99.90;;;;;;4982101;28;20207;-93
2022/02/04 11:54:54;;;;;;;1.60;1.50;;;5.80;99.90;;;;;;4981153;28;20242;-93
2022/02/04 11:57:28;;;;;;;1.57;1.20;;;5.80;99.90;;;;;;4982990;28;20262;-92
2022/02/04 12:00:02;;;;;;;1.97;1.43;;;5.80;99.90;;;;;;4982104;28;20244;-92
2022/02/04 12:02:40;;;;;;;1.50;1.40;;;5.70;99.90;;;;;;4981554;28;20307;-93
2022/02/04 12:05:31;;;;;;;1.77;1.60;;;5.70;99.90;;;;;;4981191;28;20265;-92
2022/02/04 12:08:30;;;;;;;2.40;2.03;;;5.70;99.90;;;;;;4982456;28;20211;-94
2022/02/04 12:11:11;;;;;;;2.57;1.83;;;5.70;99.90;;;;;;4996658;28;20210;-92
2022/02/04 12:14:30;;;;;;;2.40;1.93;;;5.70;99.90;;;;;;4997102;28;20203;-93
2022/02/04 12:17:11;;;;;;;2.37;1.73;;;5.70;99.90;;;;;;4996721;28;20206;-91
2022/02/04 12:19:46;;;;;;;2.10;1.63;;;5.70;99.90;;;;;;4990208;28;20215;-93
2022/02/04 12:22:50;;;;;;;2.77;2.10;;;5.70;99.90;;;;;;4996694;28;20230;-91
2022/02/04 12:25:52;;;;;;;2.70;1.83;;;5.70;99.90;;;;;;4983317;28;20225;-91
2022/02/04 12:28:38;;;;;;;3.00;1.73;;;5.70;99.90;;;;;;4978044;28;20206;-93
2022/02/04 12:31:09;;;;;;;2.93;1.70;;;5.70;99.90;;;;;;4983209;28;20211;-92
2022/02/04 12:33:45;;;;;;;2.27;1.67;;;5.70;99.90;;;;;;4985771;28;20234;-92
2022/02/04 12:36:19;;;;;;;1.97;1.73;;;5.70;99.90;;;;;;4982575;28;20253;-92
2022/02/04 12:38:52;;;;;;;2.20;1.57;;;5.70;99.90;;;;;;4983110;28;20230;-93
2022/02/04 12:41:26;;;;;;;1.80;1.60;;;5.70;99.90;;;;;;4984384;28;20213;-93
2022/02/04 12:44:00;;;;;;;1.97;1.40;;;5.70;99.90;;;;;;4981645;28;20334;-93
2022/02/04 12:46:33;;;;;;;2.20;1.60;;;5.70;99.90;;;;;;4981171;28;20568;-94
2022/02/04 12:49:09;;;;;;;2.77;1.57;;;5.70;99.90;;;;;;4982564;28;20641;-93
2022/02/04 12:51:49;;;;;;;2.33;2.13;;;5.70;99.90;;;;;;4994733;28;20285;-92
2022/02/04 12:54:37;;;;;;;2.33;1.70;;;5.70;99.90;;;;;;4997945;28;20194;-93
2022/02/04 13:00:04;;;;;;;2.40;1.73;;;5.80;99.90;;;;;;4996547;28;20182;-93
2022/02/04 13:03:04;;;;;;;1.40;1.30;;;5.80;99.90;;;;;;4988908;28;20254;-92
2022/02/04 13:08:38;;;;;;;1.87;1.30;;;5.80;99.90;;;;;;4996311;28;20220;-92
2022/02/04 13:11:12;;;;;;;1.53;1.30;;;5.80;99.90;;;;;;4995440;28;20211;-92
2022/02/04 13:13:48;;;;;;;1.77;1.40;;;5.70;99.90;;;;;;4986425;28;20227;-93
2022/02/04 13:16:23;;;;;;;1.33;1.23;;;5.70;99.90;;;;;;4983370;28;20210;-92
2022/02/04 13:18:59;;;;;;;1.30;1.07;;;5.70;99.90;;;;;;4983253;28;20203;-92
2022/02/04 13:21:32;;;;;;;1.70;1.20;;;5.70;99.90;;;;;;4986142;28;20210;-93
2022/02/04 13:24:07;;;;;;;1.40;1.20;;;5.60;99.90;;;;;;4992822;28;20238;-94
2022/02/04 13:26:38;;;;;;;1.17;1.07;;;5.60;99.90;;;;;;4984423;28;20207;-93
2022/02/04 13:29:10;;;;;;;1.60;0.90;;;5.60;99.90;;;;;;4987935;28;20301;-93
2022/02/04 13:31:42;;;;;;;1.27;1.00;;;5.60;99.90;;;;;;4993389;28;20218;-89
2022/02/04 13:34:14;;;;;;;1.97;1.13;;;5.60;99.90;;;;;;4995785;28;20232;-93
2022/02/04 13:36:49;;;;;;;1.27;0.90;;;5.70;99.90;;;;;;4993680;28;20245;-92
2022/02/04 13:39:31;;;;;;;1.17;1.00;;;5.70;99.90;;;;;;4984511;28;20282;-93
2022/02/04 13:42:13;;;;;;;1.27;1.00;;;5.70;99.90;;;;;;4985683;28;20205;-92
2022/02/04 13:44:52;;;;;;;1.50;0.87;;;5.70;99.90;;;;;;4983166;28;20207;-93
2022/02/04 13:47:34;;;;;;;1.57;1.10;;;5.70;99.90;;;;;;4982224;28;20233;-94
2022/02/04 13:50:20;;;;;;;1.00;0.90;;;5.80;99.90;;;;;;4983014;28;20305;-94
2022/02/04 13:53:05;;;;;;;1.30;0.83;;;5.70;99.90;;;;;;4982941;28;20215;-94
2022/02/04 13:55:53;;;;;;;0.83;0.80;;;5.70;99.90;;;;;;4983334;28;20207;-94
2022/02/04 13:58:38;;;;;;;2.63;0.90;;;5.70;99.90;;;;;;4982471;28;20231;-92
2022/02/04 14:01:15;;;;;;;1.73;0.87;;;5.70;99.90;;;;;;4982166;28;20204;-92
2022/02/04 14:03:52;;;;;;;0.83;0.80;;;5.60;99.90;;;;;;4981002;28;20279;-93
2022/02/04 14:06:30;;;;;;;1.27;0.90;;;5.70;99.90;;;;;;4981803;28;20237;-93
2022/02/04 14:09:15;;;;;;;1.77;0.80;;;5.70;99.90;;;;;;4982152;28;20213;-93
2022/02/04 14:11:49;;;;;;;1.00;0.83;;;5.70;99.90;;;;;;4982113;28;20663;-93
2022/02/04 14:14:25;;;;;;;0.77;0.60;;;5.70;99.90;;;;;;4981562;28;20635;-93
2022/02/04 14:17:00;;;;;;;1.23;0.60;;;5.60;99.90;;;;;;4980504;28;20231;-93
2022/02/04 14:19:31;;;;;;;1.23;0.97;;;5.60;99.90;;;;;;4987321;28;20329;-93
2022/02/04 14:22:02;;;;;;;0.87;0.70;;;5.60;99.90;;;;;;4981946;28;20210;-91
2022/02/04 14:24:33;;;;;;;0.83;0.63;;;5.50;99.90;;;;;;4981973;28;20296;-92
2022/02/04 14:27:08;;;;;;;0.90;0.60;;;5.50;99.90;;;;;;4980080;28;20219;-91
2022/02/04 14:29:48;;;;;;;0.80;0.60;;;5.40;99.90;;;;;;4982201;28;20561;-91
2022/02/04 14:32:23;;;;;;;1.50;0.50;;;5.60;99.90;;;;;;4979826;28;20325;-92
2022/02/04 14:35:06;;;;;;;0.80;0.63;;;5.60;99.90;;;;;;4980813;28;20661;-92
2022/02/04 14:37:57;;;;;;;0.57;0.57;;;5.60;99.90;;;;;;4979066;28;20211;-92
2022/02/04 14:52:04;;;;;;;0.90;0.70;;;5.60;99.90;;;;;;4980365;28;20211;-93
2022/02/04 14:54:48;;;;;;;0.43;0.40;;;5.60;99.90;;;;;;4981215;28;20200;-93
2022/02/04 15:00:30;;;;;;;0.57;0.57;;;5.50;99.90;;;;;;4981272;28;20214;-93
2022/02/04 15:03:18;;;;;;;0.40;0.40;;;5.50;99.90;;;;;;4981111;28;20207;-92
2022/02/04 15:06:01;;;;;;;0.77;0.60;;;5.50;99.90;;;;;;4981499;28;20699;-93
2022/02/04 15:08:48;;;;;;;1.03;0.50;;;5.60;99.90;;;;;;4981771;28;20207;-93
2022/02/04 15:11:22;;;;;;;0.70;0.47;;;5.60;99.90;;;;;;4993071;28;20199;-92
2022/02/04 15:13:53;;;;;;;0.40;0.40;;;5.70;99.90;;;;;;4998965;28;20218;-92
2022/02/04 15:16:27;;;;;;;0.67;0.40;;;5.70;99.90;;;;;;4998427;28;20222;-92
2022/02/04 15:19:02;;;;;;;0.77;0.53;;;5.70;99.90;;;;;;4999970;28;20195;-91
2022/02/04 15:21:34;;;;;;;2.87;0.60;;;5.70;99.90;;;;;;4999953;28;20202;-92
2022/02/04 15:24:09;;;;;;;0.40;0.40;;;5.70;99.90;;;;;;4995875;28;20227;-92
2022/02/04 15:26:41;;;;;;;0.50;0.40;;;5.70;99.90;;;;;;4994804;28;20198;-91
2022/02/04 15:29:15;;;;;;;0.50;0.50;;;5.70;99.90;;;;;;4992315;28;20217;-90
2022/02/04 15:31:52;;;;;;;0.67;0.50;;;5.80;99.90;;;;;;4990404;28;20203;-92
2022/02/04 15:34:26;;;;;;;0.80;0.50;;;5.80;99.90;;;;;;4988190;28;20241;-93
2022/02/04 15:36:58;;;;;;;0.70;0.50;;;5.80;99.90;;;;;;4984687;28;20210;-93
2022/02/04 15:39:37;;;;;;;0.60;0.50;;;5.80;99.90;;;;;;4993492;28;20211;-92
2022/02/04 15:42:13;;;;;;;1.00;0.80;;;5.80;99.90;;;;;;4996182;28;20210;-92
2022/02/04 15:44:58;;;;;;;4.87;0.60;;;5.80;99.90;;;;;;4996651;28;20239;-93
2022/02/04 15:47:40;;;;;;;1.20;0.70;;;5.80;99.90;;;;;;4993693;28;20691;-91
2022/02/04 16:01:34;;;;;;;0.80;0.63;;;5.80;99.90;;;;;;4994044;28;20206;-93
2022/02/04 16:20:49;;;;;;;0.50;0.50;;;5.80;99.90;;;;;;6242853;23;20239;-93
2022/02/04 16:23:27;;;;;;;1.13;0.50;;;5.90;99.90;;;;;;6245569;22;20685;-93
2022/02/04 16:26:22;;;;;;;2.00;0.63;;;6.00;99.90;;;;;;6243926;23;20203;-93
2022/02/04 16:28:52;;;;;;;1.07;0.60;;;6.00;99.90;;;;;;6243710;23;20168;-93
2022/02/04 16:31:25;;;;;;;0.87;0.50;;;6.10;99.90;;;;;;6247913;22;20168;-93
2022/02/04 16:33:59;;;;;;;0.60;0.60;;;6.10;99.90;;;;;;6226978;22;20194;-93
2022/02/04 16:36:53;;;;;;;1.07;0.80;;;6.10;99.90;;;;;;6214960;22;20389;-93
2022/02/04 16:39:25;;;;;;;0.80;0.80;;;6.10;99.90;;;;;;6246887;22;20181;-92
2022/02/04 16:44:32;;;;;;;1.20;1.00;;;6.10;99.90;;;;;;6239874;22;20214;-92
2022/02/04 16:47:06;;;;;;;0.90;0.90;;;6.20;99.90;;;;;;6221898;22;20204;-92
2022/02/04 16:52:23;;;;;;;1.30;1.20;;;6.20;99.90;;;;;;6220325;22;20202;-94
2022/02/04 16:54:55;;;;;;;1.30;1.10;;;6.20;99.90;;;;;;6206496;23;20168;-94
2022/02/04 16:57:28;;;;;;;2.40;1.17;;;6.20;99.90;;;;;;6204526;23;20198;-93
2022/02/04 17:00:09;;;;;;;1.63;1.50;;;6.20;99.90;;;;;;6230206;23;20176;-93
2022/02/04 17:02:41;;;;;;;1.43;1.20;;;6.20;99.90;;;;;;6231575;23;20218;-93
2022/02/04 17:05:14;;;;;;;1.80;1.43;;;6.20;99.90;;;;;;6230846;23;20196;-94
2022/02/04 17:07:53;;;;;;;3.10;2.57;;;6.20;99.90;;;;;;6234885;23;20194;-93
2022/02/04 17:10:32;;;;;;;2.00;1.50;;;6.30;99.90;;;;;;6244091;23;20191;-94
2022/02/04 17:13:04;;;;;;;2.30;1.80;;;6.30;99.90;;;;;;6241105;23;20179;-93
2022/02/04 17:15:43;;;;;;;2.13;1.70;;;6.30;99.90;;;;;;6243928;22;20224;-94
2022/02/04 17:18:19;;;;;;;1.83;1.70;;;6.30;99.90;;;;;;6234467;23;20224;-93
2022/02/04 17:20:51;;;;;;;2.43;1.30;;;6.30;99.90;;;;;;6232750;23;20172;-93
2022/02/04 17:23:30;;;;;;;1.40;1.30;;;6.30;99.90;;;;;;6231712;23;20176;-94
2022/02/04 17:26:02;;;;;;;7.60;4.57;;;6.30;99.90;;;;;;6224567;23;20330;-93
2022/02/04 17:28:34;;;;;;;1.90;1.60;;;6.30;99.90;;;;;;6236682;23;20203;-93
2022/02/04 17:31:06;;;;;;;1.53;1.40;;;6.30;99.90;;;;;;6237853;23;20183;-91
2022/02/04 17:33:40;;;;;;;2.20;2.03;;;6.30;99.90;;;;;;6228908;23;20173;-93
2022/02/04 17:36:13;;;;;;;1.73;1.10;;;6.30;99.90;;;;;;6218384;23;20239;-93
2022/02/04 17:38:51;;;;;;;1.20;1.00;;;6.30;99.90;;;;;;6242725;22;20198;-91
2022/02/04 17:41:23;;;;;;;1.33;1.20;;;6.30;99.90;;;;;;6242731;22;20168;-93
2022/02/04 17:43:55;;;;;;;1.43;1.00;;;6.30;99.90;;;;;;6243930;22;20164;-92
2022/02/04 17:46:27;;;;;;;3.60;0.73;;;6.30;99.90;;;;;;6237258;22;20232;-93
2022/02/04 17:49:08;;;;;;;2.07;1.27;;;6.30;99.90;;;;;;6225847;23;20179;-93
2022/02/04 17:54:21;;;;;;;1.37;1.00;;;6.40;99.90;;;;;;6228499;22;20216;-92
2022/02/04 17:59:45;;;;;;;1.87;0.67;;;6.50;99.90;;;;;;6234628;22;20498;-93
2022/02/04 18:02:26;;;;;;;1.10;0.70;;;6.60;99.90;;;;;;6234374;23;20192;-93
2022/02/04 18:05:28;;;;;;;1.57;1.37;;;6.60;99.90;;;;;;6238463;23;20169;-92
2022/02/04 18:07:59;;;;;;;0.80;0.80;;;6.60;99.90;;;;;;6224290;23;20184;-92
2022/02/04 18:10:36;;;;;;;0.73;0.60;;;6.60;99.90;;;;;;6223034;23;20179;-93
2022/02/04 18:13:09;;;;;;;0.97;0.60;;;6.60;99.90;;;;;;6225399;23;20204;-94
2022/02/04 18:15:42;;;;;;;0.97;0.70;;;6.60;99.90;;;;;;6224901;23;20180;-94
2022/02/04 18:18:14;;;;;;;0.90;0.50;;;6.60;99.90;;;;;;6222087;23;20164;-94
2022/02/04 18:20:45;;;;;;;4.53;0.60;;;6.60;99.90;;;;;;6223725;23;20195;-93
2022/02/04 18:23:20;;;;;;;0.80;0.70;;;6.60;99.90;;;;;;6226592;23;20207;-95
2022/02/04 18:25:54;;;;;;;1.83;1.73;;;6.70;99.90;;;;;;6225899;23;20229;-93
2022/02/04 18:28:27;;;;;;;0.73;0.50;;;6.70;99.90;;;;;;6225633;23;20506;-94
2022/02/04 18:30:58;;;;;;;0.87;0.80;;;6.70;99.90;;;;;;6202863;23;20266;-94
2022/02/04 18:33:30;;;;;;;1.40;0.70;;;6.70;99.90;;;;;;6195655;22;20207;-92
2022/02/04 18:36:02;;;;;;;0.87;0.60;;;6.80;99.90;;;;;;6228156;23;20172;-93
2022/02/04 18:38:39;;;;;;;1.83;0.60;;;6.80;99.90;;;;;;6229127;23;20176;-93
2022/02/04 18:41:34;;;;;;;0.73;0.60;;;6.80;99.90;;;;;;6238904;23;20168;-93
2022/02/04 18:44:09;;;;;;;0.83;0.57;;;6.80;99.90;;;;;;6240458;23;20187;-92
2022/02/04 18:46:59;;;;;;;0.60;0.50;;;6.90;99.90;;;;;;6207378;23;20255;-93
2022/02/04 18:49:37;;;;;;;0.60;0.60;;;6.90;99.90;;;;;;6228331;23;20171;-93
2022/02/04 18:52:21;;;;;;;2.17;0.80;;;7.00;99.90;;;;;;6228952;23;20191;-92
2022/02/04 18:55:27;;;;;;;2.83;0.80;;;7.00;99.90;;;;;;6201574;23;20178;-93
2022/02/04 18:57:50;;;;;;;1.03;0.60;;;7.00;99.90;;;;;;6226514;23;20181;-93
2022/02/04 19:00:22;;;;;;;0.93;0.70;;;7.00;99.90;;;;;;6197834;23;20176;-93
2022/02/04 19:03:01;;;;;;;1.10;0.73;;;7.00;99.90;;;;;;6209441;23;20172;-92
2022/02/04 19:05:34;;;;;;;0.93;0.50;;;7.10;99.90;;;;;;6231523;23;20178;-92
2022/02/04 19:08:10;;;;;;;0.87;0.50;;;7.10;99.90;;;;;;6221436;23;20239;-93
2022/02/04 19:10:41;;;;;;;0.70;0.70;;;7.00;99.90;;;;;;6220974;23;20180;-92
2022/02/04 19:13:19;;;;;;;1.13;1.03;;;7.10;99.90;;;;;;6220929;23;20212;-94